Terminal Aerodrome Forecast
Issued by NWS Jackson, MS

Home | Current Version | Previous Version | Text Only | Print | Product List | Glossary On
Versions: 1 2 3 4 5 6 7 8 9 10 11 12
000
FTUS44 KJAN 301120
TAFMEI
TAF
KMEI 301120Z 3012/3112 12004KT 6SM BR SCT007 BKN030
     FM301500 10005KT P6SM VCSH SCT030 BKN050
     FM301800 04004KT P6SM VCTS SCT050CB BKN070
     FM302100 VRB04KT P6SM BKN080=

USA.gov is the U.S. government's official web portal to all federal, state and local government web resources and services.